sensor_id;sensor_type;location;lat;lon;timestamp;pressure;altitude;pressure_sealevel;temperature;humidity
46223;BME280;31943;51.410;7.564;2022-08-20T00:00:28;100152.31;;;21.89;64.89
46223;BME280;31943;51.410;7.564;2022-08-20T00:02:55;100152.50;;;21.84;65.44
46223;BME280;31943;51.410;7.564;2022-08-20T00:05:24;100147.19;;;21.84;65.07
46223;BME280;31943;51.410;7.564;2022-08-20T00:07:52;100147.94;;;21.88;65.71
46223;BME280;31943;51.410;7.564;2022-08-20T00:10:18;100154.28;;;21.84;65.73
46223;BME280;31943;51.410;7.564;2022-08-20T00:12:48;100154.38;;;21.81;66.04
46223;BME280;31943;51.410;7.564;2022-08-20T00:15:15;100152.59;;;21.81;66.37
46223;BME280;31943;51.410;7.564;2022-08-20T00:17:41;100153.41;;;21.83;65.95
46223;BME280;31943;51.410;7.564;2022-08-20T00:20:10;100154.44;;;21.79;66.64
46223;BME280;31943;51.410;7.564;2022-08-20T00:22:36;100157.34;;;21.73;65.99
46223;BME280;31943;51.410;7.564;2022-08-20T00:25:05;100151.97;;;21.75;66.82
46223;BME280;31943;51.410;7.564;2022-08-20T00:27:31;100152.81;;;21.75;66.62
46223;BME280;31943;51.410;7.564;2022-08-20T00:29:57;100157.22;;;21.76;65.73
46223;BME280;31943;51.410;7.564;2022-08-20T00:32:23;100157.00;;;21.82;66.25
46223;BME280;31943;51.410;7.564;2022-08-20T00:34:49;100158.03;;;21.78;66.53
46223;BME280;31943;51.410;7.564;2022-08-20T00:37:14;100156.34;;;21.76;66.73
46223;BME280;31943;51.410;7.564;2022-08-20T00:39:40;100165.25;;;21.75;67.07
46223;BME280;31943;51.410;7.564;2022-08-20T00:42:07;100161.03;;;21.69;67.32
46223;BME280;31943;51.410;7.564;2022-08-20T00:44:33;100159.22;;;21.69;66.71
46223;BME280;31943;51.410;7.564;2022-08-20T00:47:00;100154.63;;;21.75;66.53
46223;BME280;31943;51.410;7.564;2022-08-20T00:49:27;100158.03;;;21.78;66.33
46223;BME280;31943;51.410;7.564;2022-08-20T00:51:57;100158.72;;;21.83;65.81
46223;BME280;31943;51.410;7.564;2022-08-20T00:54:26;100155.94;;;21.86;66.22
46223;BME280;31943;51.410;7.564;2022-08-20T00:56:54;100158.56;;;21.88;65.70
46223;BME280;31943;51.410;7.564;2022-08-20T00:59:25;100154.06;;;21.90;66.31
46223;BME280;31943;51.410;7.564;2022-08-20T01:01:52;100163.81;;;21.89;65.85
46223;BME280;31943;51.410;7.564;2022-08-20T01:04:18;100166.38;;;21.91;66.00
46223;BME280;31943;51.410;7.564;2022-08-20T01:06:43;100160.22;;;21.90;66.31
46223;BME280;31943;51.410;7.564;2022-08-20T01:09:09;100163.88;;;21.88;66.39
46223;BME280;31943;51.410;7.564;2022-08-20T01:11:35;100166.81;;;21.80;66.59
46223;BME280;31943;51.410;7.564;2022-08-20T01:14:05;100175.63;;;21.81;67.32
46223;BME280;31943;51.410;7.564;2022-08-20T01:16:33;100181.22;;;21.73;67.03
46223;BME280;31943;51.410;7.564;2022-08-20T01:18:59;100172.78;;;21.62;67.87
46223;BME280;31943;51.410;7.564;2022-08-20T01:21:26;100189.34;;;21.45;67.71
46223;BME280;31943;51.410;7.564;2022-08-20T01:24:02;100190.78;;;21.28;68.56
46223;BME280;31943;51.410;7.564;2022-08-20T01:26:35;100189.38;;;21.18;68.39
46223;BME280;31943;51.410;7.564;2022-08-20T01:29:03;100196.81;;;21.07;68.46
46223;BME280;31943;51.410;7.564;2022-08-20T01:31:34;100190.88;;;21.00;68.44
46223;BME280;31943;51.410;7.564;2022-08-20T01:34:02;100196.22;;;20.99;68.64
46223;BME280;31943;51.410;7.564;2022-08-20T01:36:34;100188.22;;;21.00;68.72
46223;BME280;31943;51.410;7.564;2022-08-20T01:39:00;100189.13;;;20.99;68.34
46223;BME280;31943;51.410;7.564;2022-08-20T01:41:54;100192.50;;;21.04;68.40
46223;BME280;31943;51.410;7.564;2022-08-20T01:44:24;100180.97;;;21.05;67.78
46223;BME280;31943;51.410;7.564;2022-08-20T01:46:51;100183.41;;;21.11;67.62
46223;BME280;31943;51.410;7.564;2022-08-20T01:49:20;100179.72;;;21.16;67.86
46223;BME280;31943;51.410;7.564;2022-08-20T01:51:47;100180.50;;;21.19;67.59
46223;BME280;31943;51.410;7.564;2022-08-20T01:54:13;100179.56;;;21.20;67.02
46223;BME280;31943;51.410;7.564;2022-08-20T01:56:52;100172.38;;;21.24;66.90
46223;BME280;31943;51.410;7.564;2022-08-20T01:59:20;100171.38;;;21.26;66.83
46223;BME280;31943;51.410;7.564;2022-08-20T02:01:46;100174.94;;;21.27;67.39
46223;BME280;31943;51.410;7.564;2022-08-20T02:04:12;100183.63;;;21.30;67.43
46223;BME280;31943;51.410;7.564;2022-08-20T02:06:40;100180.06;;;21.31;68.05
46223;BME280;31943;51.410;7.564;2022-08-20T02:09:07;100182.81;;;21.28;67.96
46223;BME280;31943;51.410;7.564;2022-08-20T02:11:34;100179.34;;;21.26;67.37
46223;BME280;31943;51.410;7.564;2022-08-20T02:14:01;100180.09;;;21.30;67.05
46223;BME280;31943;51.410;7.564;2022-08-20T02:16:32;100180.00;;;21.33;66.63
46223;BME280;31943;51.410;7.564;2022-08-20T02:19:10;100181.72;;;21.34;66.82
46223;BME280;31943;51.410;7.564;2022-08-20T02:21:40;100185.19;;;21.36;67.11
46223;BME280;31943;51.410;7.564;2022-08-20T02:24:07;100175.59;;;21.32;66.93
46223;BME280;31943;51.410;7.564;2022-08-20T02:26:33;100187.03;;;21.34;66.83
46223;BME280;31943;51.410;7.564;2022-08-20T02:28:59;100184.28;;;21.37;67.03
46223;BME280;31943;51.410;7.564;2022-08-20T02:31:24;100185.09;;;21.39;67.29
46223;BME280;31943;51.410;7.564;2022-08-20T02:33:52;100178.84;;;21.40;66.77
46223;BME280;31943;51.410;7.564;2022-08-20T02:36:19;100189.41;;;21.42;66.80
46223;BME280;31943;51.410;7.564;2022-08-20T02:38:45;100185.91;;;21.41;66.67
46223;BME280;31943;51.410;7.564;2022-08-20T02:41:10;100185.84;;;21.43;66.61
46223;BME280;31943;51.410;7.564;2022-08-20T02:43:36;100191.13;;;21.44;66.62
46223;BME280;31943;51.410;7.564;2022-08-20T02:46:03;100188.41;;;21.46;67.10
46223;BME280;31943;51.410;7.564;2022-08-20T02:48:29;100192.19;;;21.39;67.48
46223;BME280;31943;51.410;7.564;2022-08-20T02:50:59;100197.56;;;21.37;67.30
46223;BME280;31943;51.410;7.564;2022-08-20T02:53:26;100201.94;;;21.38;68.07
46223;BME280;31943;51.410;7.564;2022-08-20T02:55:52;100188.81;;;21.33;67.79
46223;BME280;31943;51.410;7.564;2022-08-20T02:58:18;100190.63;;;21.33;68.18
46223;BME280;31943;51.410;7.564;2022-08-20T03:00:45;100194.13;;;21.33;67.74
46223;BME280;31943;51.410;7.564;2022-08-20T03:03:11;100203.00;;;21.32;67.81
46223;BME280;31943;51.410;7.564;2022-08-20T03:05:39;100196.25;;;21.24;68.83
46223;BME280;31943;51.410;7.564;2022-08-20T03:08:09;100188.19;;;21.27;68.18
46223;BME280;31943;51.410;7.564;2022-08-20T03:10:36;100189.00;;;21.29;68.25
46223;BME280;31943;51.410;7.564;2022-08-20T03:13:03;100188.81;;;21.33;68.13
46223;BME280;31943;51.410;7.564;2022-08-20T03:15:29;100190.63;;;21.33;68.62
46223;BME280;31943;51.410;7.564;2022-08-20T03:17:55;100184.38;;;21.34;68.96
46223;BME280;31943;51.410;7.564;2022-08-20T03:20:21;100180.78;;;21.37;68.40
46223;BME280;31943;51.410;7.564;2022-08-20T03:22:47;100179.84;;;21.38;68.13
46223;BME280;31943;51.410;7.564;2022-08-20T03:25:15;100181.59;;;21.39;68.01
46223;BME280;31943;51.410;7.564;2022-08-20T03:27:41;100178.94;;;21.39;67.47
46223;BME280;31943;51.410;7.564;2022-08-20T03:30:09;100177.09;;;21.41;67.72
46223;BME280;31943;51.410;7.564;2022-08-20T03:32:36;100174.47;;;21.39;67.34
46223;BME280;31943;51.410;7.564;2022-08-20T03:35:02;100170.88;;;21.40;67.21
46223;BME280;31943;51.410;7.564;2022-08-20T03:37:29;100171.81;;;21.39;67.73
46223;BME280;31943;51.410;7.564;2022-08-20T03:39:55;100170.03;;;21.40;67.67
46223;BME280;31943;51.410;7.564;2022-08-20T03:42:23;100171.88;;;21.38;67.04
46223;BME280;31943;51.410;7.564;2022-08-20T03:44:48;100175.47;;;21.37;67.35
46223;BME280;31943;51.410;7.564;2022-08-20T03:47:14;100178.13;;;21.37;66.98
46223;BME280;31943;51.410;7.564;2022-08-20T03:49:40;100171.16;;;21.32;67.21
46223;BME280;31943;51.410;7.564;2022-08-20T03:52:05;100178.22;;;21.33;67.44
46223;BME280;31943;51.410;7.564;2022-08-20T03:54:31;100167.66;;;21.32;66.95
46223;BME280;31943;51.410;7.564;2022-08-20T03:56:59;100163.19;;;21.32;67.26
46223;BME280;31943;51.410;7.564;2022-08-20T03:59:27;100170.34;;;21.30;67.18
46223;BME280;31943;51.410;7.564;2022-08-20T04:01:53;100171.28;;;21.29;67.63
46223;BME280;31943;51.410;7.564;2022-08-20T04:04:19;100166.03;;;21.28;67.29
46223;BME280;31943;51.410;7.564;2022-08-20T04:06:45;100167.81;;;21.27;67.11
46223;BME280;31943;51.410;7.564;2022-08-20T04:09:11;100166.03;;;21.28;67.79
46223;BME280;31943;51.410;7.564;2022-08-20T04:11:36;100167.81;;;21.27;67.72
46223;BME280;31943;51.410;7.564;2022-08-20T04:14:02;100167.97;;;21.23;67.89
46223;BME280;31943;51.410;7.564;2022-08-20T04:16:29;100174.22;;;21.22;67.63
46223;BME280;31943;51.410;7.564;2022-08-20T04:18:54;100173.25;;;21.23;67.58
46223;BME280;31943;51.410;7.564;2022-08-20T04:21:20;100174.22;;;21.22;67.54
46223;BME280;31943;51.410;7.564;2022-08-20T04:23:45;100177.72;;;21.22;68.20
46223;BME280;31943;51.410;7.564;2022-08-20T04:26:11;100177.84;;;21.19;67.73
46223;BME280;31943;51.410;7.564;2022-08-20T04:28:37;100182.34;;;21.17;67.80
46223;BME280;31943;51.410;7.564;2022-08-20T04:31:02;100181.53;;;21.15;68.06
46223;BME280;31943;51.410;7.564;2022-08-20T04:33:29;100186.06;;;21.11;68.66
46223;BME280;31943;51.410;7.564;2022-08-20T04:35:57;100190.56;;;21.09;67.52
46223;BME280;31943;51.410;7.564;2022-08-20T04:38:23;100193.22;;;21.09;68.26
46223;BME280;31943;51.410;7.564;2022-08-20T04:40:49;100202.06;;;21.08;68.07
46223;BME280;31943;51.410;7.564;2022-08-20T04:43:14;100203.91;;;21.06;67.83
46223;BME280;31943;51.410;7.564;2022-08-20T04:45:41;100209.28;;;21.05;68.14
46223;BME280;31943;51.410;7.564;2022-08-20T04:48:07;100214.69;;;21.02;68.62
46223;BME280;31943;51.410;7.564;2022-08-20T04:50:37;100212.09;;;21.00;68.24
46223;BME280;31943;51.410;7.564;2022-08-20T04:53:05;100220.94;;;20.99;68.06
46223;BME280;31943;51.410;7.564;2022-08-20T04:55:32;100235.09;;;21.00;67.83
46223;BME280;31943;51.410;7.564;2022-08-20T04:58:03;100233.34;;;20.99;67.63
46223;BME280;31943;51.410;7.564;2022-08-20T05:00:28;100234.22;;;20.99;67.70
46223;BME280;31943;51.410;7.564;2022-08-20T05:02:55;100235.00;;;21.03;67.51
46223;BME280;31943;51.410;7.564;2022-08-20T05:05:20;100230.56;;;21.03;68.06
46223;BME280;31943;51.410;7.564;2022-08-20T05:07:47;100234.03;;;21.05;67.94
46223;BME280;31943;51.410;7.564;2022-08-20T05:10:16;100240.16;;;21.07;68.16
46223;BME280;31943;51.410;7.564;2022-08-20T05:12:42;100235.72;;;21.08;68.02
46223;BME280;31943;51.410;7.564;2022-08-20T05:15:09;100237.44;;;21.09;68.52
46223;BME280;31943;51.410;7.564;2022-08-20T05:17:35;100247.13;;;21.10;68.23
46223;BME280;31943;51.410;7.564;2022-08-20T05:20:02;100250.59;;;21.12;68.71
46223;BME280;31943;51.410;7.564;2022-08-20T05:22:28;100256.88;;;21.09;69.35
46223;BME280;31943;51.410;7.564;2022-08-20T05:24:55;100242.72;;;21.09;69.20
46223;BME280;31943;51.410;7.564;2022-08-20T05:27:21;100249.75;;;21.11;69.29
46223;BME280;31943;51.410;7.564;2022-08-20T05:29:46;100251.47;;;21.12;68.78
46223;BME280;31943;51.410;7.564;2022-08-20T05:32:12;100248.72;;;21.16;68.47
46223;BME280;31943;51.410;7.564;2022-08-20T05:34:37;100244.22;;;21.18;69.23
46223;BME280;31943;51.410;7.564;2022-08-20T05:37:03;100247.66;;;21.21;69.43
46223;BME280;31943;51.410;7.564;2022-08-20T05:39:29;100243.16;;;21.23;69.23
46223;BME280;31943;51.410;7.564;2022-08-20T05:41:56;100247.44;;;21.27;69.92
46223;BME280;31943;51.410;7.564;2022-08-20T05:44:22;100239.44;;;21.29;70.02
46223;BME280;31943;51.410;7.564;2022-08-20T05:46:47;100248.22;;;21.31;70.21
46223;BME280;31943;51.410;7.564;2022-08-20T05:49:15;100238.41;;;21.33;70.16
46223;BME280;31943;51.410;7.564;2022-08-20T05:51:41;100245.34;;;21.37;70.25
46223;BME280;31943;51.410;7.564;2022-08-20T05:54:06;100245.22;;;21.40;69.60
46223;BME280;31943;51.410;7.564;2022-08-20T05:56:33;100240.84;;;21.39;69.31
46223;BME280;31943;51.410;7.564;2022-08-20T05:59:01;100242.50;;;21.43;69.04
46223;BME280;31943;51.410;7.564;2022-08-20T06:01:26;100246.78;;;21.47;69.21
46223;BME280;31943;51.410;7.564;2022-08-20T06:03:52;100243.09;;;21.51;69.42
46223;BME280;31943;51.410;7.564;2022-08-20T06:06:17;100248.13;;;21.59;69.14
46223;BME280;31943;51.410;7.564;2022-08-20T06:08:43;100252.34;;;21.65;69.20
46223;BME280;31943;51.410;7.564;2022-08-20T06:11:09;100247.94;;;21.64;69.06
46223;BME280;31943;51.410;7.564;2022-08-20T06:13:34;100248.03;;;21.62;69.20
46223;BME280;31943;51.410;7.564;2022-08-20T06:16:02;100248.97;;;21.60;68.67
46223;BME280;31943;51.410;7.564;2022-08-20T06:18:27;100251.72;;;21.58;68.53
46223;BME280;31943;51.410;7.564;2022-08-20T06:20:53;100250.97;;;21.55;68.64
46223;BME280;31943;51.410;7.564;2022-08-20T06:23:19;100253.66;;;21.53;68.12
46223;BME280;31943;51.410;7.564;2022-08-20T06:25:45;100251.91;;;21.52;68.03
46223;BME280;31943;51.410;7.564;2022-08-20T06:28:12;100251.09;;;21.50;68.16
46223;BME280;31943;51.410;7.564;2022-08-20T06:30:38;100253.88;;;21.47;68.08
46223;BME280;31943;51.410;7.564;2022-08-20T06:33:05;100253.06;;;21.45;68.42
46223;BME280;31943;51.410;7.564;2022-08-20T06:35:31;100249.56;;;21.43;68.38
46223;BME280;31943;51.410;7.564;2022-08-20T06:37:56;100252.13;;;21.46;68.86
46223;BME280;31943;51.410;7.564;2022-08-20T06:40:24;100256.53;;;21.47;68.81
46223;BME280;31943;51.410;7.564;2022-08-20T06:42:51;100254.69;;;21.49;68.92
46223;BME280;31943;51.410;7.564;2022-08-20T06:45:18;100259.16;;;21.48;68.51
46223;BME280;31943;51.410;7.564;2022-08-20T06:47:45;100256.53;;;21.47;68.04
46223;BME280;31943;51.410;7.564;2022-08-20T06:50:19;100256.56;;;21.45;67.65
46223;BME280;31943;51.410;7.564;2022-08-20T06:52:45;100254.78;;;21.46;67.92
46223;BME280;31943;51.410;7.564;2022-08-20T06:55:11;100260.03;;;21.47;68.25
46223;BME280;31943;51.410;7.564;2022-08-20T06:57:37;100267.25;;;21.42;68.27
46223;BME280;31943;51.410;7.564;2022-08-20T07:00:05;100269.91;;;21.44;67.88
46223;BME280;31943;51.410;7.564;2022-08-20T07:02:31;100269.03;;;21.43;68.05
46223;BME280;31943;51.410;7.564;2022-08-20T07:04:56;100266.22;;;21.48;67.99
46223;BME280;31943;51.410;7.564;2022-08-20T07:07:23;100271.53;;;21.48;67.43
46223;BME280;31943;51.410;7.564;2022-08-20T07:09:49;100272.69;;;21.39;68.05
46223;BME280;31943;51.410;7.564;2022-08-20T07:12:15;100278.16;;;21.35;68.47
46223;BME280;31943;51.410;7.564;2022-08-20T07:14:41;100275.69;;;21.28;68.72
46223;BME280;31943;51.410;7.564;2022-08-20T07:17:07;100275.03;;;21.22;68.57
46223;BME280;31943;51.410;7.564;2022-08-20T07:19:33;100284.63;;;21.26;68.72
46223;BME280;31943;51.410;7.564;2022-08-20T07:21:58;100278.31;;;21.30;68.90
46223;BME280;31943;51.410;7.564;2022-08-20T07:24:27;100279.13;;;21.32;68.42
46223;BME280;31943;51.410;7.564;2022-08-20T07:26:53;100280.66;;;21.39;67.46
46223;BME280;31943;51.410;7.564;2022-08-20T07:29:18;100288.34;;;21.48;67.56
46223;BME280;31943;51.410;7.564;2022-08-20T07:31:44;100283.63;;;21.57;67.61
46223;BME280;31943;51.410;7.564;2022-08-20T07:34:11;100288.75;;;21.61;67.55
46223;BME280;31943;51.410;7.564;2022-08-20T07:36:40;100285.81;;;21.70;67.01
46223;BME280;31943;51.410;7.564;2022-08-20T07:39:06;100296.03;;;21.81;67.13
46223;BME280;31943;51.410;7.564;2022-08-20T07:41:34;100292.28;;;21.87;67.81
46223;BME280;31943;51.410;7.564;2022-08-20T07:44:00;100293.22;;;21.86;67.53
46223;BME280;31943;51.410;7.564;2022-08-20T07:46:26;100294.91;;;21.88;67.17
46223;BME280;31943;51.410;7.564;2022-08-20T07:48:52;100292.13;;;21.91;66.30
46223;BME280;31943;51.410;7.564;2022-08-20T07:51:20;100306.31;;;21.90;66.77
46223;BME280;31943;51.410;7.564;2022-08-20T07:53:46;100299.97;;;21.95;67.34
46223;BME280;31943;51.410;7.564;2022-08-20T07:56:14;100300.69;;;22.00;66.60
46223;BME280;31943;51.410;7.564;2022-08-20T07:58:44;100296.25;;;22.00;66.47
46223;BME280;31943;51.410;7.564;2022-08-20T08:01:10;100300.78;;;21.97;66.59
46223;BME280;31943;51.410;7.564;2022-08-20T08:03:36;100298.25;;;21.94;67.53
46223;BME280;31943;51.410;7.564;2022-08-20T08:06:02;100298.38;;;21.90;68.03
46223;BME280;31943;51.410;7.564;2022-08-20T08:08:30;100305.44;;;21.91;68.35
46223;BME280;31943;51.410;7.564;2022-08-20T08:10:59;100307.94;;;21.95;67.73
46223;BME280;31943;51.410;7.564;2022-08-20T08:13:31;100303.31;;;22.01;67.87
46223;BME280;31943;51.410;7.564;2022-08-20T08:15:59;100302.31;;;22.04;67.19
46223;BME280;31943;51.410;7.564;2022-08-20T08:18:28;100301.31;;;22.06;66.96
46223;BME280;31943;51.410;7.564;2022-08-20T08:20:55;100301.84;;;22.16;66.56
46223;BME280;31943;51.410;7.564;2022-08-20T08:23:22;100309.59;;;22.22;66.47
46223;BME280;31943;51.410;7.564;2022-08-20T08:25:48;100305.81;;;22.29;66.74
46223;BME280;31943;51.410;7.564;2022-08-20T08:28:14;100306.41;;;22.38;66.77
46223;BME280;31943;51.410;7.564;2022-08-20T08:30:41;100304.44;;;22.43;67.05
46223;BME280;31943;51.410;7.564;2022-08-20T08:33:17;100295.72;;;22.39;66.75
46223;BME280;31943;51.410;7.564;2022-08-20T08:35:42;100304.69;;;22.37;65.92
46223;BME280;31943;51.410;7.564;2022-08-20T08:38:08;100300.84;;;22.44;65.32
46223;BME280;31943;51.410;7.564;2022-08-20T08:40:34;100309.28;;;22.55;65.20
46223;BME280;31943;51.410;7.564;2022-08-20T08:43:02;100310.13;;;22.56;65.58
46223;BME280;31943;51.410;7.564;2022-08-20T08:45:34;100306.31;;;22.63;65.71
46223;BME280;31943;51.410;7.564;2022-08-20T08:48:03;100309.03;;;22.61;65.96
46223;BME280;31943;51.410;7.564;2022-08-20T08:50:35;100302.91;;;22.59;65.20
46223;BME280;31943;51.410;7.564;2022-08-20T08:53:00;100306.03;;;22.70;65.21
46223;BME280;31943;51.410;7.564;2022-08-20T08:55:28;100306.69;;;22.76;63.97
46223;BME280;31943;51.410;7.564;2022-08-20T08:57:55;100315.38;;;22.81;64.35
46223;BME280;31943;51.410;7.564;2022-08-20T09:00:22;100318.97;;;22.80;64.13
46223;BME280;31943;51.410;7.564;2022-08-20T09:02:53;100321.81;;;22.97;63.45
46223;BME280;31943;51.410;7.564;2022-08-20T09:05:22;100319.34;;;23.15;63.04
46223;BME280;31943;51.410;7.564;2022-08-20T09:07:53;100321.53;;;23.27;62.81
46223;BME280;31943;51.410;7.564;2022-08-20T09:10:19;100322.50;;;23.24;62.79
46223;BME280;31943;51.410;7.564;2022-08-20T09:12:46;100328.75;;;23.45;61.68
46223;BME280;31943;51.410;7.564;2022-08-20T09:15:11;100323.84;;;23.57;61.46
46223;BME280;31943;51.410;7.564;2022-08-20T09:17:37;100319.91;;;23.65;61.40
46223;BME280;31943;51.410;7.564;2022-08-20T09:20:04;100318.41;;;23.80;61.31
46223;BME280;31943;51.410;7.564;2022-08-20T09:22:30;100323.41;;;23.88;61.29
46223;BME280;31943;51.410;7.564;2022-08-20T09:25:23;100326.31;;;24.02;60.68
46223;BME280;31943;51.410;7.564;2022-08-20T09:28:00;100329.31;;;23.95;61.31
46223;BME280;31943;51.410;7.564;2022-08-20T09:30:27;100333.69;;;23.75;60.85
46223;BME280;31943;51.410;7.564;2022-08-20T09:32:52;100332.94;;;23.72;61.41
46223;BME280;31943;51.410;7.564;2022-08-20T09:35:18;100327.97;;;23.64;61.48
46223;BME280;31943;51.410;7.564;2022-08-20T09:37:44;100330.75;;;23.61;61.61
46223;BME280;31943;51.410;7.564;2022-08-20T09:40:10;100321.75;;;23.43;62.06
46223;BME280;31943;51.410;7.564;2022-08-20T09:42:39;100318.56;;;23.35;62.44
46223;BME280;31943;51.410;7.564;2022-08-20T09:45:06;100331.09;;;23.53;62.43
46223;BME280;31943;51.410;7.564;2022-08-20T09:47:31;100325.44;;;23.81;60.55
46223;BME280;31943;51.410;7.564;2022-08-20T09:49:57;100331.81;;;24.18;60.14
46223;BME280;31943;51.410;7.564;2022-08-20T09:52:26;100328.69;;;24.48;58.61
46223;BME280;31943;51.410;7.564;2022-08-20T09:54:56;100321.56;;;24.67;57.10
46223;BME280;31943;51.410;7.564;2022-08-20T09:57:22;100325.34;;;24.63;58.03
46223;BME280;31943;51.410;7.564;2022-08-20T09:59:53;100320.69;;;24.48;58.81
46223;BME280;31943;51.410;7.564;2022-08-20T10:02:20;100328.47;;;24.34;58.87
46223;BME280;31943;51.410;7.564;2022-08-20T10:04:45;100324.78;;;24.76;58.73
46223;BME280;31943;51.410;7.564;2022-08-20T10:07:11;100315.06;;;25.11;56.99
46223;BME280;31943;51.410;7.564;2022-08-20T10:09:37;100322.81;;;25.16;56.09
46223;BME280;31943;51.410;7.564;2022-08-20T10:12:03;100326.97;;;24.85;56.77
46223;BME280;31943;51.410;7.564;2022-08-20T10:14:28;100325.50;;;24.60;57.14
46223;BME280;31943;51.410;7.564;2022-08-20T10:16:56;100330.06;;;24.38;58.91
46223;BME280;31943;51.410;7.564;2022-08-20T10:19:25;100334.38;;;24.21;58.96
46223;BME280;31943;51.410;7.564;2022-08-20T10:21:52;100337.19;;;23.98;59.73
46223;BME280;31943;51.410;7.564;2022-08-20T10:24:18;100343.25;;;23.81;59.79
46223;BME280;31943;51.410;7.564;2022-08-20T10:26:45;100343.38;;;23.98;59.44
46223;BME280;31943;51.410;7.564;2022-08-20T10:29:11;100333.50;;;24.21;58.92
46223;BME280;31943;51.410;7.564;2022-08-20T10:31:36;100332.78;;;24.36;58.14
46223;BME280;31943;51.410;7.564;2022-08-20T10:34:04;100330.91;;;24.78;56.65
46223;BME280;31943;51.410;7.564;2022-08-20T10:36:29;100335.41;;;24.95;56.14
46223;BME280;31943;51.410;7.564;2022-08-20T10:38:55;100340.97;;;24.71;56.55
46223;BME280;31943;51.410;7.564;2022-08-20T10:41:20;100344.53;;;24.32;57.45
46223;BME280;31943;51.410;7.564;2022-08-20T10:43:46;100348.50;;;24.03;58.04
46223;BME280;31943;51.410;7.564;2022-08-20T10:46:13;100344.78;;;23.86;58.99
46223;BME280;31943;51.410;7.564;2022-08-20T10:48:38;100349.31;;;23.84;59.43
46223;BME280;31943;51.410;7.564;2022-08-20T10:51:06;100354.78;;;24.02;59.30
46223;BME280;31943;51.410;7.564;2022-08-20T10:53:33;100348.59;;;24.01;58.70
46223;BME280;31943;51.410;7.564;2022-08-20T10:55:59;100343.97;;;24.05;58.42
46223;BME280;31943;51.410;7.564;2022-08-20T10:58:25;100339.97;;;23.95;58.10
46223;BME280;31943;51.410;7.564;2022-08-20T11:00:52;100339.84;;;23.98;58.50
46223;BME280;31943;51.410;7.564;2022-08-20T11:03:18;100341.13;;;24.28;57.89
46223;BME280;31943;51.410;7.564;2022-08-20T11:05:43;100346.97;;;24.57;57.21
46223;BME280;31943;51.410;7.564;2022-08-20T11:08:11;100358.66;;;24.55;56.87
46223;BME280;31943;51.410;7.564;2022-08-20T11:10:37;100352.53;;;24.32;57.33
46223;BME280;31943;51.410;7.564;2022-08-20T11:13:05;100345.53;;;24.30;57.80
46223;BME280;31943;51.410;7.564;2022-08-20T11:15:33;100337.47;;;24.31;57.40
46223;BME280;31943;51.410;7.564;2022-08-20T11:18:00;100348.09;;;24.33;56.51
46223;BME280;31943;51.410;7.564;2022-08-20T11:20:26;100344.06;;;24.43;56.81
46223;BME280;31943;51.410;7.564;2022-08-20T11:22:52;100346.97;;;24.57;55.95
46223;BME280;31943;51.410;7.564;2022-08-20T11:25:20;100359.88;;;24.27;55.95
46223;BME280;31943;51.410;7.564;2022-08-20T11:27:47;100358.78;;;24.52;56.02
46223;BME280;31943;51.410;7.564;2022-08-20T11:30:21;100361.38;;;24.91;55.01
46223;BME280;31943;51.410;7.564;2022-08-20T11:32:47;100361.97;;;24.98;54.40
46223;BME280;31943;51.410;7.564;2022-08-20T11:35:12;100360.22;;;25.16;53.86
46223;BME280;31943;51.410;7.564;2022-08-20T11:37:38;100358.47;;;25.15;53.56
46223;BME280;31943;51.410;7.564;2022-08-20T11:40:05;100355.69;;;24.99;53.26
46223;BME280;31943;51.410;7.564;2022-08-20T11:42:32;100356.63;;;24.79;54.11
46223;BME280;31943;51.410;7.564;2022-08-20T11:44:58;100354.97;;;24.76;53.99
46223;BME280;31943;51.410;7.564;2022-08-20T11:47:25;100356.75;;;24.95;53.62
46223;BME280;31943;51.410;7.564;2022-08-20T11:49:56;100359.38;;;24.77;54.10
46223;BME280;31943;51.410;7.564;2022-08-20T11:52:22;100363.69;;;24.61;54.61
46223;BME280;31943;51.410;7.564;2022-08-20T11:54:48;100358.47;;;24.39;53.97
46223;BME280;31943;51.410;7.564;2022-08-20T11:57:19;100360.91;;;24.64;53.80
46223;BME280;31943;51.410;7.564;2022-08-20T11:59:49;100348.38;;;25.02;53.13
46223;BME280;31943;51.410;7.564;2022-08-20T12:02:15;100350.28;;;25.00;52.90
46223;BME280;31943;51.410;7.564;2022-08-20T12:04:41;100359.97;;;24.84;53.35
46223;BME280;31943;51.410;7.564;2022-08-20T12:07:09;100356.94;;;24.73;53.72
46223;BME280;31943;51.410;7.564;2022-08-20T12:09:34;100360.38;;;24.75;53.38
46223;BME280;31943;51.410;7.564;2022-08-20T12:12:00;100365.63;;;24.57;53.85
46223;BME280;31943;51.410;7.564;2022-08-20T12:14:26;100364.00;;;24.74;52.92
46223;BME280;31943;51.410;7.564;2022-08-20T12:16:53;100352.44;;;24.73;52.50
46223;BME280;31943;51.410;7.564;2022-08-20T12:19:19;100356.56;;;24.80;52.54
46223;BME280;31943;51.410;7.564;2022-08-20T12:21:45;100351.44;;;24.95;52.72
46223;BME280;31943;51.410;7.564;2022-08-20T12:24:10;100358.81;;;24.71;52.32
46223;BME280;31943;51.410;7.564;2022-08-20T12:26:36;100366.25;;;24.64;52.49
46223;BME280;31943;51.410;7.564;2022-08-20T12:29:02;100357.72;;;24.94;51.76
46223;BME280;31943;51.410;7.564;2022-08-20T12:31:28;100354.63;;;25.20;51.22
46223;BME280;31943;51.410;7.564;2022-08-20T12:33:55;100358.72;;;25.47;50.95
46223;BME280;31943;51.410;7.564;2022-08-20T12:36:20;100355.13;;;25.65;49.90
46223;BME280;31943;51.410;7.564;2022-08-20T12:38:46;100353.31;;;25.83;48.73
46223;BME280;31943;51.410;7.564;2022-08-20T12:41:11;100353.47;;;25.80;49.14
46223;BME280;31943;51.410;7.564;2022-08-20T12:43:37;100361.31;;;25.65;49.25
46223;BME280;31943;51.410;7.564;2022-08-20T12:46:03;100358.09;;;25.41;49.69
46223;BME280;31943;51.410;7.564;2022-08-20T12:48:29;100351.78;;;25.25;50.39